sensor_id;sensor_type;location;lat;lon;timestamp;temperature;humidity
4647;DHT22;2336;47.822;7.564;2022-09-03T00:00:35;16.70;99.90
4647;DHT22;2336;47.822;7.564;2022-09-03T00:03:07;16.70;99.90
4647;DHT22;2336;47.822;7.564;2022-09-03T00:05:39;16.70;99.90
4647;DHT22;2336;47.822;7.564;2022-09-03T00:08:13;16.80;99.90
4647;DHT22;2336;47.822;7.564;2022-09-03T00:10:48;16.80;99.90
4647;DHT22;2336;47.822;7.564;2022-09-03T00:13:19;16.80;99.90
4647;DHT22;2336;47.822;7.564;2022-09-03T00:15:48;16.90;99.90
4647;DHT22;2336;47.822;7.564;2022-09-03T00:18:19;17.00;99.90
4647;DHT22;2336;47.822;7.564;2022-09-03T00:20:51;17.00;99.90
4647;DHT22;2336;47.822;7.564;2022-09-03T00:23:21;17.10;99.90
4647;DHT22;2336;47.822;7.564;2022-09-03T00:25:53;17.10;99.90
4647;DHT22;2336;47.822;7.564;2022-09-03T00:28:25;17.20;99.90
4647;DHT22;2336;47.822;7.564;2022-09-03T00:31:02;17.30;99.90
4647;DHT22;2336;47.822;7.564;2022-09-03T00:33:32;17.30;99.90
4647;DHT22;2336;47.822;7.564;2022-09-03T00:36:09;17.30;99.90
4647;DHT22;2336;47.822;7.564;2022-09-03T00:38:37;17.40;99.90
4647;DHT22;2336;47.822;7.564;2022-09-03T00:41:08;17.40;99.90
4647;DHT22;2336;47.822;7.564;2022-09-03T00:43:55;17.50;99.90
4647;DHT22;2336;47.822;7.564;2022-09-03T00:46:32;17.50;99.90
4647;DHT22;2336;47.822;7.564;2022-09-03T00:49:20;17.50;99.90
4647;DHT22;2336;47.822;7.564;2022-09-03T00:51:57;17.60;99.90
4647;DHT22;2336;47.822;7.564;2022-09-03T00:54:32;17.60;99.90
4647;DHT22;2336;47.822;7.564;2022-09-03T00:57:13;17.60;99.90
4647;DHT22;2336;47.822;7.564;2022-09-03T00:59:54;17.60;99.90
4647;DHT22;2336;47.822;7.564;2022-09-03T01:02:29;17.70;99.90
4647;DHT22;2336;47.822;7.564;2022-09-03T01:05:03;17.70;99.90
4647;DHT22;2336;47.822;7.564;2022-09-03T01:07:40;17.70;99.90
4647;DHT22;2336;47.822;7.564;2022-09-03T01:10:17;17.70;99.90
4647;DHT22;2336;47.822;7.564;2022-09-03T01:12:55;17.70;99.90
4647;DHT22;2336;47.822;7.564;2022-09-03T01:15:29;17.70;99.90
4647;DHT22;2336;47.822;7.564;2022-09-03T01:18:09;17.80;99.90
4647;DHT22;2336;47.822;7.564;2022-09-03T01:20:48;17.80;99.90
4647;DHT22;2336;47.822;7.564;2022-09-03T01:23:48;17.80;99.90
4647;DHT22;2336;47.822;7.564;2022-09-03T01:26:29;17.80;99.90
4647;DHT22;2336;47.822;7.564;2022-09-03T01:29:07;17.80;99.90
4647;DHT22;2336;47.822;7.564;2022-09-03T01:31:42;17.80;99.90
4647;DHT22;2336;47.822;7.564;2022-09-03T01:34:19;17.90;99.90
4647;DHT22;2336;47.822;7.564;2022-09-03T01:36:58;17.90;99.90
4647;DHT22;2336;47.822;7.564;2022-09-03T01:39:31;17.90;99.90
4647;DHT22;2336;47.822;7.564;2022-09-03T01:42:06;17.90;99.90
4647;DHT22;2336;47.822;7.564;2022-09-03T01:44:49;17.90;99.90
4647;DHT22;2336;47.822;7.564;2022-09-03T01:47:26;17.80;99.90
4647;DHT22;2336;47.822;7.564;2022-09-03T01:50:01;17.80;99.90
4647;DHT22;2336;47.822;7.564;2022-09-03T01:52:36;17.80;99.90
4647;DHT22;2336;47.822;7.564;2022-09-03T01:55:17;17.80;99.90
4647;DHT22;2336;47.822;7.564;2022-09-03T01:57:48;17.80;99.90
4647;DHT22;2336;47.822;7.564;2022-09-03T02:00:22;17.80;99.90
4647;DHT22;2336;47.822;7.564;2022-09-03T02:02:51;17.80;99.90
4647;DHT22;2336;47.822;7.564;2022-09-03T02:05:19;17.80;99.90
4647;DHT22;2336;47.822;7.564;2022-09-03T02:07:50;17.80;99.90
4647;DHT22;2336;47.822;7.564;2022-09-03T02:10:19;17.80;99.90
4647;DHT22;2336;47.822;7.564;2022-09-03T02:12:50;17.70;99.90
4647;DHT22;2336;47.822;7.564;2022-09-03T02:15:22;17.70;99.90
4647;DHT22;2336;47.822;7.564;2022-09-03T02:17:53;17.60;99.90
4647;DHT22;2336;47.822;7.564;2022-09-03T02:20:22;17.60;99.90
4647;DHT22;2336;47.822;7.564;2022-09-03T02:22:50;17.60;99.90
4647;DHT22;2336;47.822;7.564;2022-09-03T02:25:18;17.50;99.90
4647;DHT22;2336;47.822;7.564;2022-09-03T02:27:47;17.40;99.90
4647;DHT22;2336;47.822;7.564;2022-09-03T02:30:14;17.40;99.90
4647;DHT22;2336;47.822;7.564;2022-09-03T02:32:43;17.30;99.90
4647;DHT22;2336;47.822;7.564;2022-09-03T02:35:10;17.30;99.90
4647;DHT22;2336;47.822;7.564;2022-09-03T02:37:37;17.20;99.90
4647;DHT22;2336;47.822;7.564;2022-09-03T02:40:05;17.10;99.90
4647;DHT22;2336;47.822;7.564;2022-09-03T02:42:34;17.00;99.90
4647;DHT22;2336;47.822;7.564;2022-09-03T02:45:07;17.00;99.90
4647;DHT22;2336;47.822;7.564;2022-09-03T02:47:39;17.00;99.90
4647;DHT22;2336;47.822;7.564;2022-09-03T02:50:09;17.00;99.90
4647;DHT22;2336;47.822;7.564;2022-09-03T02:52:36;17.00;99.90
4647;DHT22;2336;47.822;7.564;2022-09-03T02:55:03;16.90;99.90
4647;DHT22;2336;47.822;7.564;2022-09-03T02:57:30;17.00;99.90
4647;DHT22;2336;47.822;7.564;2022-09-03T02:59:56;17.00;99.90
4647;DHT22;2336;47.822;7.564;2022-09-03T03:02:23;17.10;99.90
4647;DHT22;2336;47.822;7.564;2022-09-03T03:04:50;17.10;99.90
4647;DHT22;2336;47.822;7.564;2022-09-03T03:07:18;17.10;99.90
4647;DHT22;2336;47.822;7.564;2022-09-03T03:09:45;17.10;99.90
4647;DHT22;2336;47.822;7.564;2022-09-03T03:12:11;17.10;99.90
4647;DHT22;2336;47.822;7.564;2022-09-03T03:14:40;17.20;99.90
4647;DHT22;2336;47.822;7.564;2022-09-03T03:17:06;17.20;99.90
4647;DHT22;2336;47.822;7.564;2022-09-03T03:19:33;17.20;99.90
4647;DHT22;2336;47.822;7.564;2022-09-03T03:22:00;17.20;99.90
4647;DHT22;2336;47.822;7.564;2022-09-03T03:24:28;17.20;99.90
4647;DHT22;2336;47.822;7.564;2022-09-03T03:26:55;17.20;99.90
4647;DHT22;2336;47.822;7.564;2022-09-03T03:29:24;17.10;99.90
4647;DHT22;2336;47.822;7.564;2022-09-03T03:31:51;17.10;99.90
4647;DHT22;2336;47.822;7.564;2022-09-03T03:34:17;17.10;99.90
4647;DHT22;2336;47.822;7.564;2022-09-03T03:36:44;17.10;99.90
4647;DHT22;2336;47.822;7.564;2022-09-03T03:39:11;17.10;99.90
4647;DHT22;2336;47.822;7.564;2022-09-03T03:41:39;17.20;99.90
4647;DHT22;2336;47.822;7.564;2022-09-03T03:44:07;17.20;99.90
4647;DHT22;2336;47.822;7.564;2022-09-03T03:46:35;17.20;99.90
4647;DHT22;2336;47.822;7.564;2022-09-03T03:49:02;17.20;99.90
4647;DHT22;2336;47.822;7.564;2022-09-03T03:51:30;17.20;99.90
4647;DHT22;2336;47.822;7.564;2022-09-03T03:53:58;17.10;99.90
4647;DHT22;2336;47.822;7.564;2022-09-03T03:56:26;17.10;99.90
4647;DHT22;2336;47.822;7.564;2022-09-03T03:58:54;17.00;99.90
4647;DHT22;2336;47.822;7.564;2022-09-03T04:01:23;17.00;99.90
4647;DHT22;2336;47.822;7.564;2022-09-03T04:03:50;17.10;99.90
4647;DHT22;2336;47.822;7.564;2022-09-03T04:06:18;17.10;99.90
4647;DHT22;2336;47.822;7.564;2022-09-03T04:08:47;17.10;99.90
4647;DHT22;2336;47.822;7.564;2022-09-03T04:11:16;17.10;99.90
4647;DHT22;2336;47.822;7.564;2022-09-03T04:13:44;17.10;99.90
4647;DHT22;2336;47.822;7.564;2022-09-03T04:16:14;17.10;99.90
4647;DHT22;2336;47.822;7.564;2022-09-03T04:18:42;17.10;99.90
4647;DHT22;2336;47.822;7.564;2022-09-03T04:21:12;17.00;99.90
4647;DHT22;2336;47.822;7.564;2022-09-03T04:23:40;17.00;99.90
4647;DHT22;2336;47.822;7.564;2022-09-03T04:26:08;17.10;99.90
4647;DHT22;2336;47.822;7.564;2022-09-03T04:28:36;17.00;99.90
4647;DHT22;2336;47.822;7.564;2022-09-03T04:31:04;17.00;99.90
4647;DHT22;2336;47.822;7.564;2022-09-03T04:33:33;17.00;99.90
4647;DHT22;2336;47.822;7.564;2022-09-03T04:36:03;17.00;99.90
4647;DHT22;2336;47.822;7.564;2022-09-03T04:38:30;17.00;99.90
4647;DHT22;2336;47.822;7.564;2022-09-03T04:40:57;17.00;99.90
4647;DHT22;2336;47.822;7.564;2022-09-03T04:43:25;17.00;99.90
4647;DHT22;2336;47.822;7.564;2022-09-03T04:45:55;17.00;99.90
4647;DHT22;2336;47.822;7.564;2022-09-03T04:48:23;17.00;99.90
4647;DHT22;2336;47.822;7.564;2022-09-03T04:50:51;17.00;99.90
4647;DHT22;2336;47.822;7.564;2022-09-03T04:53:20;17.00;99.90
4647;DHT22;2336;47.822;7.564;2022-09-03T04:55:46;17.00;99.90
4647;DHT22;2336;47.822;7.564;2022-09-03T04:58:13;17.00;99.90
4647;DHT22;2336;47.822;7.564;2022-09-03T05:00:40;17.10;99.90
4647;DHT22;2336;47.822;7.564;2022-09-03T05:03:07;17.10;99.90
4647;DHT22;2336;47.822;7.564;2022-09-03T05:05:33;17.10;99.90
4647;DHT22;2336;47.822;7.564;2022-09-03T05:08:02;17.10;99.90
4647;DHT22;2336;47.822;7.564;2022-09-03T05:10:30;17.20;99.90
4647;DHT22;2336;47.822;7.564;2022-09-03T05:12:58;17.20;99.90
4647;DHT22;2336;47.822;7.564;2022-09-03T05:15:25;17.20;99.90
4647;DHT22;2336;47.822;7.564;2022-09-03T05:17:55;17.20;99.90
4647;DHT22;2336;47.822;7.564;2022-09-03T05:20:22;17.20;99.90
4647;DHT22;2336;47.822;7.564;2022-09-03T05:22:50;17.20;99.90
4647;DHT22;2336;47.822;7.564;2022-09-03T05:25:18;17.20;99.90
4647;DHT22;2336;47.822;7.564;2022-09-03T05:27:45;17.30;99.90
4647;DHT22;2336;47.822;7.564;2022-09-03T05:30:12;17.30;99.90
4647;DHT22;2336;47.822;7.564;2022-09-03T05:32:39;17.30;99.90
4647;DHT22;2336;47.822;7.564;2022-09-03T05:35:07;17.40;99.90
4647;DHT22;2336;47.822;7.564;2022-09-03T05:37:35;17.40;99.90
4647;DHT22;2336;47.822;7.564;2022-09-03T05:40:03;17.50;99.90
4647;DHT22;2336;47.822;7.564;2022-09-03T05:42:31;17.50;99.90
4647;DHT22;2336;47.822;7.564;2022-09-03T05:45:05;17.50;99.90
4647;DHT22;2336;47.822;7.564;2022-09-03T05:47:34;17.50;99.90
4647;DHT22;2336;47.822;7.564;2022-09-03T05:50:01;17.50;99.90
4647;DHT22;2336;47.822;7.564;2022-09-03T05:52:27;17.60;99.90
4647;DHT22;2336;47.822;7.564;2022-09-03T05:54:54;17.60;99.90
4647;DHT22;2336;47.822;7.564;2022-09-03T05:57:21;17.60;99.90
4647;DHT22;2336;47.822;7.564;2022-09-03T05:59:49;17.70;99.90
4647;DHT22;2336;47.822;7.564;2022-09-03T06:02:15;17.70;99.90
4647;DHT22;2336;47.822;7.564;2022-09-03T06:04:44;17.80;99.90
4647;DHT22;2336;47.822;7.564;2022-09-03T06:07:11;17.80;99.90
4647;DHT22;2336;47.822;7.564;2022-09-03T06:09:37;17.80;99.90
4647;DHT22;2336;47.822;7.564;2022-09-03T06:12:04;17.80;99.90
4647;DHT22;2336;47.822;7.564;2022-09-03T06:14:31;17.90;99.90
4647;DHT22;2336;47.822;7.564;2022-09-03T06:16:59;18.00;99.90
4647;DHT22;2336;47.822;7.564;2022-09-03T06:19:26;18.00;99.90
4647;DHT22;2336;47.822;7.564;2022-09-03T06:21:53;18.10;99.90
4647;DHT22;2336;47.822;7.564;2022-09-03T06:24:20;18.10;99.90
4647;DHT22;2336;47.822;7.564;2022-09-03T06:26:47;18.10;99.90
4647;DHT22;2336;47.822;7.564;2022-09-03T06:29:15;18.10;99.90
4647;DHT22;2336;47.822;7.564;2022-09-03T06:31:44;18.10;99.90
4647;DHT22;2336;47.822;7.564;2022-09-03T06:34:14;18.20;99.90
4647;DHT22;2336;47.822;7.564;2022-09-03T06:36:43;18.20;99.90
4647;DHT22;2336;47.822;7.564;2022-09-03T06:39:09;18.20;99.90
4647;DHT22;2336;47.822;7.564;2022-09-03T06:41:36;18.30;99.90
4647;DHT22;2336;47.822;7.564;2022-09-03T06:44:05;18.30;99.90
4647;DHT22;2336;47.822;7.564;2022-09-03T06:46:37;18.40;99.90
4647;DHT22;2336;47.822;7.564;2022-09-03T06:49:06;18.50;99.90
4647;DHT22;2336;47.822;7.564;2022-09-03T06:51:35;18.50;99.90
4647;DHT22;2336;47.822;7.564;2022-09-03T06:54:04;18.70;99.90
4647;DHT22;2336;47.822;7.564;2022-09-03T06:56:32;18.80;99.90
4647;DHT22;2336;47.822;7.564;2022-09-03T06:59:02;18.80;99.90
4647;DHT22;2336;47.822;7.564;2022-09-03T07:01:31;18.90;99.90
4647;DHT22;2336;47.822;7.564;2022-09-03T07:03:59;19.00;99.90
4647;DHT22;2336;47.822;7.564;2022-09-03T07:06:28;19.00;99.90
4647;DHT22;2336;47.822;7.564;2022-09-03T07:08:56;19.10;99.90
4647;DHT22;2336;47.822;7.564;2022-09-03T07:11:25;19.20;99.90
4647;DHT22;2336;47.822;7.564;2022-09-03T07:13:54;19.20;99.90
4647;DHT22;2336;47.822;7.564;2022-09-03T07:16:22;19.30;99.90
4647;DHT22;2336;47.822;7.564;2022-09-03T07:18:50;19.40;99.90
4647;DHT22;2336;47.822;7.564;2022-09-03T07:21:18;19.40;99.90
4647;DHT22;2336;47.822;7.564;2022-09-03T07:23:46;19.50;99.90
4647;DHT22;2336;47.822;7.564;2022-09-03T07:26:15;19.50;99.90
4647;DHT22;2336;47.822;7.564;2022-09-03T07:28:44;19.60;99.90
4647;DHT22;2336;47.822;7.564;2022-09-03T07:31:14;19.60;99.90
4647;DHT22;2336;47.822;7.564;2022-09-03T07:33:41;19.70;99.90
4647;DHT22;2336;47.822;7.564;2022-09-03T07:36:09;19.70;99.90
4647;DHT22;2336;47.822;7.564;2022-09-03T07:38:36;19.80;99.90
4647;DHT22;2336;47.822;7.564;2022-09-03T07:41:05;19.80;99.90
4647;DHT22;2336;47.822;7.564;2022-09-03T07:43:36;19.90;99.90
4647;DHT22;2336;47.822;7.564;2022-09-03T07:46:04;20.00;99.90
4647;DHT22;2336;47.822;7.564;2022-09-03T07:48:31;20.20;99.90
4647;DHT22;2336;47.822;7.564;2022-09-03T07:50:59;20.40;99.90
4647;DHT22;2336;47.822;7.564;2022-09-03T07:53:27;20.50;99.90
4647;DHT22;2336;47.822;7.564;2022-09-03T07:56:00;20.60;99.90
4647;DHT22;2336;47.822;7.564;2022-09-03T07:58:27;20.50;99.90
4647;DHT22;2336;47.822;7.564;2022-09-03T08:00:56;20.40;99.90
4647;DHT22;2336;47.822;7.564;2022-09-03T08:03:22;20.40;99.90
4647;DHT22;2336;47.822;7.564;2022-09-03T08:05:49;20.40;99.90
4647;DHT22;2336;47.822;7.564;2022-09-03T08:08:16;20.50;99.90
4647;DHT22;2336;47.822;7.564;2022-09-03T08:10:43;20.60;99.90
4647;DHT22;2336;47.822;7.564;2022-09-03T08:13:09;20.70;99.90
4647;DHT22;2336;47.822;7.564;2022-09-03T08:15:36;20.70;99.90
4647;DHT22;2336;47.822;7.564;2022-09-03T08:18:06;20.70;99.90
4647;DHT22;2336;47.822;7.564;2022-09-03T08:20:32;20.60;99.90
4647;DHT22;2336;47.822;7.564;2022-09-03T08:23:00;20.60;99.90
4647;DHT22;2336;47.822;7.564;2022-09-03T08:25:28;20.70;99.90
4647;DHT22;2336;47.822;7.564;2022-09-03T08:27:57;20.70;99.90
4647;DHT22;2336;47.822;7.564;2022-09-03T08:30:24;20.70;99.90
4647;DHT22;2336;47.822;7.564;2022-09-03T08:32:52;20.80;99.90
4647;DHT22;2336;47.822;7.564;2022-09-03T08:35:20;20.80;99.90
4647;DHT22;2336;47.822;7.564;2022-09-03T08:37:47;20.80;99.90
4647;DHT22;2336;47.822;7.564;2022-09-03T08:40:16;20.80;99.90
4647;DHT22;2336;47.822;7.564;2022-09-03T08:42:53;20.70;99.90
4647;DHT22;2336;47.822;7.564;2022-09-03T08:45:22;20.70;99.90
4647;DHT22;2336;47.822;7.564;2022-09-03T08:47:51;20.60;99.90
4647;DHT22;2336;47.822;7.564;2022-09-03T08:50:25;20.50;99.90
4647;DHT22;2336;47.822;7.564;2022-09-03T08:52:56;20.40;99.90
4647;DHT22;2336;47.822;7.564;2022-09-03T08:55:28;20.30;99.90
4647;DHT22;2336;47.822;7.564;2022-09-03T08:58:00;20.20;99.90
4647;DHT22;2336;47.822;7.564;2022-09-03T09:00:37;20.10;99.90
4647;DHT22;2336;47.822;7.564;2022-09-03T09:03:16;20.00;99.90
4647;DHT22;2336;47.822;7.564;2022-09-03T09:05:53;19.80;99.90
4647;DHT22;2336;47.822;7.564;2022-09-03T09:08:31;19.60;99.90
4647;DHT22;2336;47.822;7.564;2022-09-03T09:11:04;19.30;99.90
4647;DHT22;2336;47.822;7.564;2022-09-03T09:13:38;19.10;99.90
4647;DHT22;2336;47.822;7.564;2022-09-03T09:16:11;19.00;99.90
4647;DHT22;2336;47.822;7.564;2022-09-03T09:18:51;18.80;99.90
4647;DHT22;2336;47.822;7.564;2022-09-03T09:21:27;18.70;99.90
4647;DHT22;2336;47.822;7.564;2022-09-03T09:24:00;18.60;99.90
4647;DHT22;2336;47.822;7.564;2022-09-03T09:26:28;18.40;99.90
4647;DHT22;2336;47.822;7.564;2022-09-03T09:28:59;18.40;99.90
4647;DHT22;2336;47.822;7.564;2022-09-03T09:31:27;18.30;99.90
4647;DHT22;2336;47.822;7.564;2022-09-03T09:33:58;18.30;99.90
4647;DHT22;2336;47.822;7.564;2022-09-03T09:36:27;18.20;99.90
4647;DHT22;2336;47.822;7.564;2022-09-03T09:38:54;18.10;99.90
4647;DHT22;2336;47.822;7.564;2022-09-03T09:41:21;17.90;99.90
4647;DHT22;2336;47.822;7.564;2022-09-03T09:43:59;17.90;99.90
4647;DHT22;2336;47.822;7.564;2022-09-03T09:46:32;17.60;99.90
4647;DHT22;2336;47.822;7.564;2022-09-03T09:49:00;17.50;99.90
4647;DHT22;2336;47.822;7.564;2022-09-03T09:51:30;17.40;99.90
4647;DHT22;2336;47.822;7.564;2022-09-03T09:54:01;17.30;99.90
4647;DHT22;2336;47.822;7.564;2022-09-03T09:56:29;17.10;99.90
4647;DHT22;2336;47.822;7.564;2022-09-03T09:59:04;17.00;99.90
4647;DHT22;2336;47.822;7.564;2022-09-03T10:01:31;16.90;99.90
4647;DHT22;2336;47.822;7.564;2022-09-03T10:04:00;16.80;99.90
4647;DHT22;2336;47.822;7.564;2022-09-03T10:06:35;16.70;99.90
4647;DHT22;2336;47.822;7.564;2022-09-03T10:09:22;16.70;99.90
4647;DHT22;2336;47.822;7.564;2022-09-03T10:12:07;16.70;99.90
4647;DHT22;2336;47.822;7.564;2022-09-03T10:14:42;16.60;99.90
4647;DHT22;2336;47.822;7.564;2022-09-03T10:17:15;16.50;99.90
4647;DHT22;2336;47.822;7.564;2022-09-03T10:19:49;16.50;99.90
4647;DHT22;2336;47.822;7.564;2022-09-03T10:22:40;16.40;99.90
4647;DHT22;2336;47.822;7.564;2022-09-03T10:25:12;16.30;99.90
4647;DHT22;2336;47.822;7.564;2022-09-03T10:27:40;16.30;99.90
4647;DHT22;2336;47.822;7.564;2022-09-03T10:30:11;16.30;99.90
4647;DHT22;2336;47.822;7.564;2022-09-03T10:32:44;16.30;99.90
4647;DHT22;2336;47.822;7.564;2022-09-03T10:35:22;16.40;99.90
4647;DHT22;2336;47.822;7.564;2022-09-03T10:38:03;16.30;99.90
4647;DHT22;2336;47.822;7.564;2022-09-03T10:40:37;16.40;99.90
4647;DHT22;2336;47.822;7.564;2022-09-03T10:43:18;16.40;99.90
4647;DHT22;2336;47.822;7.564;2022-09-03T10:46:01;16.50;99.90
4647;DHT22;2336;47.822;7.564;2022-09-03T10:48:47;16.70;99.90
4647;DHT22;2336;47.822;7.564;2022-09-03T10:51:18;17.00;99.90
4647;DHT22;2336;47.822;7.564;2022-09-03T10:54:05;17.20;99.90
4647;DHT22;2336;47.822;7.564;2022-09-03T10:56:42;17.40;99.90
4647;DHT22;2336;47.822;7.564;2022-09-03T10:59:26;17.50;99.90
4647;DHT22;2336;47.822;7.564;2022-09-03T11:02:00;17.60;99.90
4647;DHT22;2336;47.822;7.564;2022-09-03T11:04:39;17.80;99.90
4647;DHT22;2336;47.822;7.564;2022-09-03T11:07:12;17.90;99.90
4647;DHT22;2336;47.822;7.564;2022-09-03T11:09:45;18.00;99.90
4647;DHT22;2336;47.822;7.564;2022-09-03T11:12:19;18.00;99.90
4647;DHT22;2336;47.822;7.564;2022-09-03T11:14:51;18.20;99.90
4647;DHT22;2336;47.822;7.564;2022-09-03T11:17:23;18.20;99.90
4647;DHT22;2336;47.822;7.564;2022-09-03T11:19:54;18.40;99.90
4647;DHT22;2336;47.822;7.564;2022-09-03T11:22:23;18.50;99.90
4647;DHT22;2336;47.822;7.564;2022-09-03T11:24:55;18.80;99.90
4647;DHT22;2336;47.822;7.564;2022-09-03T11:27:30;19.00;99.90
4647;DHT22;2336;47.822;7.564;2022-09-03T11:30:02;19.20;99.90
4647;DHT22;2336;47.822;7.564;2022-09-03T11:32:40;19.40;99.90
4647;DHT22;2336;47.822;7.564;2022-09-03T11:35:16;19.50;99.90
4647;DHT22;2336;47.822;7.564;2022-09-03T11:37:51;19.60;99.90
4647;DHT22;2336;47.822;7.564;2022-09-03T11:40:28;19.70;99.90
4647;DHT22;2336;47.822;7.564;2022-09-03T11:43:05;19.90;99.90
4647;DHT22;2336;47.822;7.564;2022-09-03T11:45:35;20.20;99.90
4647;DHT22;2336;47.822;7.564;2022-09-03T11:48:16;20.50;99.90
4647;DHT22;2336;47.822;7.564;2022-09-03T11:50:52;20.70;99.90
4647;DHT22;2336;47.822;7.564;2022-09-03T11:53:24;20.80;99.90
4647;DHT22;2336;47.822;7.564;2022-09-03T11:55:59;20.80;99.90
4647;DHT22;2336;47.822;7.564;2022-09-03T11:58:29;20.70;99.90
4647;DHT22;2336;47.822;7.564;2022-09-03T12:00:57;20.70;99.90
4647;DHT22;2336;47.822;7.564;2022-09-03T12:03:29;20.80;99.90
4647;DHT22;2336;47.822;7.564;2022-09-03T12:06:16;21.30;99.90
4647;DHT22;2336;47.822;7.564;2022-09-03T12:08:58;21.60;99.90
4647;DHT22;2336;47.822;7.564;2022-09-03T12:11:40;21.80;99.90
4647;DHT22;2336;47.822;7.564;2022-09-03T12:14:18;22.00;99.90
4647;DHT22;2336;47.822;7.564;2022-09-03T12:16:58;22.30;99.90
4647;DHT22;2336;47.822;7.564;2022-09-03T12:19:31;22.30;99.90
4647;DHT22;2336;47.822;7.564;2022-09-03T12:22:01;22.40;99.90
4647;DHT22;2336;47.822;7.564;2022-09-03T12:24:30;22.50;99.90
4647;DHT22;2336;47.822;7.564;2022-09-03T12:27:03;22.60;99.90
4647;DHT22;2336;47.822;7.564;2022-09-03T12:29:30;22.90;99.90
4647;DHT22;2336;47.822;7.564;2022-09-03T12:32:06;22.90;99.90
4647;DHT22;2336;47.822;7.564;2022-09-03T12:34:33;23.20;99.90
4647;DHT22;2336;47.822;7.564;2022-09-03T12:37:00;23.30;99.90
4647;DHT22;2336;47.822;7.564;2022-09-03T12:39:28;23.30;99.90
4647;DHT22;2336;47.822;7.564;2022-09-03T12:41:59;23.30;99.90
4647;DHT22;2336;47.822;7.564;2022-09-03T12:44:31;23.40;99.90
4647;DHT22;2336;47.822;7.564;2022-09-03T12:47:03;23.70;99.90
4647;DHT22;2336;47.822;7.564;2022-09-03T12:49:35;23.70;99.90
4647;DHT22;2336;47.822;7.564;2022-09-03T12:52:09;23.80;99.90
4647;DHT22;2336;47.822;7.564;2022-09-03T12:54:42;23.80;99.90
4647;DHT22;2336;47.822;7.564;2022-09-03T12:57:15;23.80;99.90
4647;DHT22;2336;47.822;7.564;2022-09-03T12:59:47;23.70;99.90
4647;DHT22;2336;47.822;7.564;2022-09-03T13:02:17;23.70;99.90
4647;DHT22;2336;47.822;7.564;2022-09-03T13:04:45;23.70;99.90
4647;DHT22;2336;47.822;7.564;2022-09-03T13:07:18;23.60;99.90
4647;DHT22;2336;47.822;7.564;2022-09-03T13:09:48;23.60;99.90
4647;DHT22;2336;47.822;7.564;2022-09-03T13:12:27;23.70;99.90
4647;DHT22;2336;47.822;7.564;2022-09-03T13:14:56;23.80;99.90
4647;DHT22;2336;47.822;7.564;2022-09-03T13:17:37;23.80;99.90
4647;DHT22;2336;47.822;7.564;2022-09-03T13:20:21;23.80;99.90
4647;DHT22;2336;47.822;7.564;2022-09-03T13:23:03;23.80;99.90
4647;DHT22;2336;47.822;7.564;2022-09-03T13:25:38;23.80;99.90
4647;DHT22;2336;47.822;7.564;2022-09-03T13:28:19;23.90;99.90
4647;DHT22;2336;47.822;7.564;2022-09-03T13:30:56;24.00;99.90
4647;DHT22;2336;47.822;7.564;2022-09-03T13:33:31;24.20;99.90
4647;DHT22;2336;47.822;7.564;2022-09-03T13:36:02;24.30;99.90
4647;DHT22;2336;47.822;7.564;2022-09-03T13:38:34;24.40;99.90
4647;DHT22;2336;47.822;7.564;2022-09-03T13:41:08;24.40;99.90
4647;DHT22;2336;47.822;7.564;2022-09-03T13:43:47;24.40;99.90
4647;DHT22;2336;47.822;7.564;2022-09-03T13:46:23;24.40;99.90
4647;DHT22;2336;47.822;7.564;2022-09-03T13:48:57;24.40;99.90
4647;DHT22;2336;47.822;7.564;2022-09-03T13:51:47;24.40;99.90
4647;DHT22;2336;47.822;7.564;2022-09-03T13:54:18;24.40;99.90
4647;DHT22;2336;47.822;7.564;2022-09-03T13:56:53;24.40;99.90
4647;DHT22;2336;47.822;7.564;2022-09-03T13:59:28;24.40;99.90
4647;DHT22;2336;47.822;7.564;2022-09-03T14:02:14;24.30;99.90
4647;DHT22;2336;47.822;7.564;2022-09-03T14:04:50;24.30;99.90
4647;DHT22;2336;47.822;7.564;2022-09-03T14:07:24;24.50;99.90
4647;DHT22;2336;47.822;7.564;2022-09-03T14:09:58;24.40;99.90
4647;DHT22;2336;47.822;7.564;2022-09-03T14:12:35;24.30;99.90
4647;DHT22;2336;47.822;7.564;2022-09-03T14:15:14;24.20;99.90
4647;DHT22;2336;47.822;7.564;2022-09-03T14:17:47;24.20;99.90
4647;DHT22;2336;47.822;7.564;2022-09-03T14:20:22;24.00;99.90
4647;DHT22;2336;47.822;7.564;2022-09-03T14:22:53;24.00;99.90
4647;DHT22;2336;47.822;7.564;2022-09-03T14:25:23;24.20;99.90
4647;DHT22;2336;47.822;7.564;2022-09-03T14:27:50;24.30;99.90
4647;DHT22;2336;47.822;7.564;2022-09-03T14:30:24;24.20;99.90
4647;DHT22;2336;47.822;7.564;2022-09-03T14:33:03;24.10;99.90
4647;DHT22;2336;47.822;7.564;2022-09-03T14:35:48;24.00;99.90
4647;DHT22;2336;47.822;7.564;2022-09-03T14:45:10;24.50;99.90
4647;DHT22;2336;47.822;7.564;2022-09-03T14:47:58;24.60;99.90
4647;DHT22;2336;47.822;7.564;2022-09-03T14:50:38;24.70;99.90
4647;DHT22;2336;47.822;7.564;2022-09-03T14:53:23;24.70;99.90
4647;DHT22;2336;47.822;7.564;2022-09-03T14:56:09;24.70;99.90
4647;DHT22;2336;47.822;7.564;2022-09-03T14:58:58;24.60;99.90
4647;DHT22;2336;47.822;7.564;2022-09-03T15:01:28;24.50;99.90
4647;DHT22;2336;47.822;7.564;2022-09-03T15:04:28;24.40;99.90
4647;DHT22;2336;47.822;7.564;2022-09-03T15:07:12;24.30;99.90
4647;DHT22;2336;47.822;7.564;2022-09-03T15:09:49;24.20;99.90
4647;DHT22;2336;47.822;7.564;2022-09-03T15:12:22;24.20;99.90
4647;DHT22;2336;47.822;7.564;2022-09-03T15:14:53;24.10;99.90
4647;DHT22;2336;47.822;7.564;2022-09-03T15:17:36;24.20;99.90
4647;DHT22;2336;47.822;7.564;2022-09-03T15:20:18;24.20;99.90
4647;DHT22;2336;47.822;7.564;2022-09-03T15:23:01;24.30;99.90
4647;DHT22;2336;47.822;7.564;2022-09-03T15:25:42;24.30;99.90
4647;DHT22;2336;47.822;7.564;2022-09-03T15:28:13;24.20;99.90
4647;DHT22;2336;47.822;7.564;2022-09-03T15:30:46;24.20;99.90
4647;DHT22;2336;47.822;7.564;2022-09-03T15:33:22;24.30;99.90
4647;DHT22;2336;47.822;7.564;2022-09-03T15:36:14;24.40;99.90
4647;DHT22;2336;47.822;7.564;2022-09-03T15:38:48;24.40;99.90
4647;DHT22;2336;47.822;7.564;2022-09-03T15:41:33;24.40;99.90
4647;DHT22;2336;47.822;7.564;2022-09-03T15:44:02;24.30;99.90
4647;DHT22;2336;47.822;7.564;2022-09-03T15:46:47;24.30;99.90
4647;DHT22;2336;47.822;7.564;2022-09-03T15:49:36;24.30;99.90
4647;DHT22;2336;47.822;7.564;2022-09-03T15:52:25;24.20;99.90
4647;DHT22;2336;47.822;7.564;2022-09-03T15:55:00;24.20;99.90
4647;DHT22;2336;47.822;7.564;2022-09-03T15:57:31;24.10;99.90
4647;DHT22;2336;47.822;7.564;2022-09-03T16:00:01;24.00;99.90
4647;DHT22;2336;47.822;7.564;2022-09-03T16:02:32;23.90;99.90
4647;DHT22;2336;47.822;7.564;2022-09-03T16:05:06;23.80;99.90
4647;DHT22;2336;47.822;7.564;2022-09-03T16:07:52;23.70;99.90
4647;DHT22;2336;47.822;7.564;2022-09-03T16:10:21;23.70;99.90
4647;DHT22;2336;47.822;7.564;2022-09-03T16:13:03;23.60;99.90
4647;DHT22;2336;47.822;7.564;2022-09-03T16:15:35;23.60;99.90
4647;DHT22;2336;47.822;7.564;2022-09-03T16:18:08;23.50;99.90
4647;DHT22;2336;47.822;7.564;2022-09-03T16:20:41;23.50;99.90
4647;DHT22;2336;47.822;7.564;2022-09-03T16:23:15;23.40;99.90
4647;DHT22;2336;47.822;7.564;2022-09-03T16:25:48;23.40;99.90
4647;DHT22;2336;47.822;7.564;2022-09-03T16:28:23;23.30;99.90
4647;DHT22;2336;47.822;7.564;2022-09-03T16:31:10;23.20;99.90
4647;DHT22;2336;47.822;7.564;2022-09-03T16:33:44;23.20;99.90
4647;DHT22;2336;47.822;7.564;2022-09-03T16:36:30;23.20;99.90
4647;DHT22;2336;47.822;7.564;2022-09-03T16:39:04;23.20;99.90
4647;DHT22;2336;47.822;7.564;2022-09-03T16:41:41;23.10;99.90